DLH5MI EDDF-EDDM
Flight info
| Callsign | DLH5MI |
|---|---|
| Flight time | 0h 53m |
| Altitude | 21000 |
| Route | CINDY8S/18 CINDY Z74 HAREM T104 ROKIL ROKIL1A |
| Aircraft | A321/M-SDE3FGHIRWY/LB1 |
Departure
| Time | 2026-05-04 17:30 |
|---|---|
| Airport | Frankfurt Main Airport (EDDF) |
Arrival
| Time | 2026-05-04 18:23 |
|---|---|
| Airport | Munich Airport (EDDM) |
| Time | Latitude | Longitude | Altitude | Speed | Heading |
|---|---|---|---|---|---|
| 2026-05-04 16:37 | 50.04700 | 8.56856 | 356 ft | 0 kts | 296° |
| 2026-05-04 17:16 | 50.04688 | 8.56896 | 354 ft | 4 kts | 291° |
| 2026-05-04 17:17 | 50.04682 | 8.56935 | 353 ft | 4 kts | 262° |
| 2026-05-04 17:17 | 50.04692 | 8.56963 | 355 ft | 0 kts | 205° |
| 2026-05-04 17:20 | 50.04691 | 8.56963 | 355 ft | 0 kts | 205° |
| 2026-05-04 17:21 | 50.04669 | 8.56947 | 354 ft | 4 kts | 205° |
| 2026-05-04 17:21 | 50.04599 | 8.56908 | 348 ft | 8 kts | 194° |
| 2026-05-04 17:22 | 50.04530 | 8.56883 | 345 ft | 12 kts | 193° |
| 2026-05-04 17:22 | 50.04453 | 8.56819 | 350 ft | 14 kts | 239° |
| 2026-05-04 17:23 | 50.04336 | 8.56345 | 348 ft | 12 kts | 249° |
| 2026-05-04 17:23 | 50.04311 | 8.56243 | 353 ft | 9 kts | 250° |
| 2026-05-04 17:23 | 50.04253 | 8.55998 | 354 ft | 21 kts | 250° |
| 2026-05-04 17:24 | 50.04203 | 8.55789 | 353 ft | 21 kts | 249° |
| 2026-05-04 17:24 | 50.04114 | 8.55417 | 347 ft | 13 kts | 250° |
| 2026-05-04 17:25 | 50.04073 | 8.55243 | 348 ft | 18 kts | 249° |
| 2026-05-04 17:25 | 50.03984 | 8.54864 | 348 ft | 19 kts | 250° |
| 2026-05-04 17:26 | 50.03891 | 8.54485 | 351 ft | 19 kts | 250° |
| 2026-05-04 17:26 | 50.03726 | 8.53912 | 351 ft | 20 kts | 250° |
| 2026-05-04 17:27 | 50.03626 | 8.53507 | 349 ft | 20 kts | 249° |
| 2026-05-04 17:27 | 50.03524 | 8.53082 | 348 ft | 21 kts | 249° |
| 2026-05-04 17:28 | 50.03426 | 8.52700 | 351 ft | 13 kts | 248° |
| 2026-05-04 17:29 | 50.03342 | 8.52594 | 345 ft | 0 kts | 181° |
| 2026-05-04 17:29 | 50.02745 | 8.52598 | 346 ft | 110 kts | 180° |
| 2026-05-04 17:30 | 49.99229 | 8.52701 | 1378 ft | 187 kts | 179° |
| 2026-05-04 17:31 | 49.96602 | 8.53697 | 2215 ft | 215 kts | 143° |
| 2026-05-04 17:31 | 49.94176 | 8.60065 | 3850 ft | 235 kts | 104° |
| 2026-05-04 17:32 | 49.93862 | 8.65524 | 4713 ft | 267 kts | 95° |
| 2026-05-04 17:33 | 49.91015 | 8.72586 | 6806 ft | 268 kts | 147° |
| 2026-05-04 17:33 | 49.89508 | 8.74252 | 7487 ft | 271 kts | 144° |
| 2026-05-04 17:34 | 49.86214 | 8.81635 | 9512 ft | 285 kts | 123° |
| 2026-05-04 17:34 | 49.85242 | 8.84340 | 10138 ft | 290 kts | 123° |
| 2026-05-04 17:35 | 49.81957 | 8.93364 | 10593 ft | 349 kts | 122° |
| 2026-05-04 17:35 | 49.79523 | 9.00040 | 11546 ft | 361 kts | 122° |
| 2026-05-04 17:35 | 49.78284 | 9.03439 | 12107 ft | 364 kts | 122° |
| 2026-05-04 17:36 | 49.77032 | 9.06880 | 12647 ft | 368 kts | 121° |
| 2026-05-04 17:36 | 49.76007 | 9.10541 | 13190 ft | 375 kts | 110° |
| 2026-05-04 17:36 | 49.75343 | 9.14465 | 13721 ft | 379 kts | 108° |
| 2026-05-04 17:36 | 49.74390 | 9.18266 | 14178 ft | 379 kts | 120° |
| 2026-05-04 17:37 | 49.72987 | 9.21715 | 14672 ft | 379 kts | 130° |
| 2026-05-04 17:37 | 49.71268 | 9.24812 | 15162 ft | 380 kts | 134° |
| 2026-05-04 17:37 | 49.69519 | 9.27892 | 15652 ft | 383 kts | 134° |
| 2026-05-04 17:37 | 49.67756 | 9.30996 | 16135 ft | 386 kts | 133° |
| 2026-05-04 17:38 | 49.65979 | 9.34122 | 16620 ft | 389 kts | 134° |
| 2026-05-04 17:38 | 49.64192 | 9.37263 | 17096 ft | 392 kts | 134° |
| 2026-05-04 17:38 | 49.62389 | 9.40439 | 17552 ft | 395 kts | 134° |
| 2026-05-04 17:38 | 49.60577 | 9.43634 | 18005 ft | 397 kts | 134° |
| 2026-05-04 17:39 | 49.56911 | 9.50090 | 18768 ft | 402 kts | 134° |
| 2026-05-04 17:39 | 49.55060 | 9.53338 | 19177 ft | 404 kts | 134° |
| 2026-05-04 17:39 | 49.53201 | 9.56601 | 19576 ft | 406 kts | 134° |
| 2026-05-04 17:40 | 49.51332 | 9.59877 | 19966 ft | 408 kts | 134° |
| 2026-05-04 17:40 | 49.49480 | 9.63118 | 20352 ft | 410 kts | 134° |
| 2026-05-04 17:40 | 49.47591 | 9.66415 | 20730 ft | 412 kts | 134° |
| 2026-05-04 17:40 | 49.45692 | 9.69724 | 20944 ft | 413 kts | 134° |
| 2026-05-04 17:41 | 49.43773 | 9.73067 | 20977 ft | 419 kts | 134° |
| 2026-05-04 17:41 | 49.41838 | 9.76431 | 20976 ft | 421 kts | 134° |
| 2026-05-04 17:41 | 49.39899 | 9.79794 | 20976 ft | 421 kts | 134° |
| 2026-05-04 17:41 | 49.37959 | 9.83158 | 20975 ft | 421 kts | 134° |
| 2026-05-04 17:42 | 49.36018 | 9.86520 | 20968 ft | 421 kts | 135° |
| 2026-05-04 17:42 | 49.34074 | 9.89882 | 20975 ft | 421 kts | 135° |
| 2026-05-04 17:42 | 49.32130 | 9.93237 | 20975 ft | 421 kts | 135° |
| 2026-05-04 17:42 | 49.30186 | 9.96588 | 20975 ft | 421 kts | 135° |
| 2026-05-04 17:43 | 49.28238 | 9.99940 | 20977 ft | 421 kts | 135° |
| 2026-05-04 17:43 | 49.26286 | 10.03292 | 20976 ft | 421 kts | 135° |
| 2026-05-04 17:43 | 49.24335 | 10.06632 | 20974 ft | 421 kts | 135° |
| 2026-05-04 17:43 | 49.22384 | 10.09969 | 20974 ft | 421 kts | 135° |
| 2026-05-04 17:44 | 49.20433 | 10.13308 | 20976 ft | 421 kts | 135° |
| 2026-05-04 17:44 | 49.18486 | 10.16644 | 20982 ft | 421 kts | 135° |
| 2026-05-04 17:44 | 49.16539 | 10.19976 | 20985 ft | 421 kts | 135° |
| 2026-05-04 17:44 | 49.14583 | 10.23314 | 20969 ft | 421 kts | 135° |
| 2026-05-04 17:45 | 49.12620 | 10.26615 | 20969 ft | 420 kts | 136° |
| 2026-05-04 17:45 | 49.10621 | 10.29881 | 20979 ft | 420 kts | 136° |
| 2026-05-04 17:45 | 49.08601 | 10.33111 | 20985 ft | 420 kts | 137° |
| 2026-05-04 17:45 | 49.06576 | 10.36318 | 20984 ft | 420 kts | 137° |
| 2026-05-04 17:46 | 49.04551 | 10.39522 | 20973 ft | 420 kts | 137° |
| 2026-05-04 17:46 | 49.02556 | 10.42690 | 20975 ft | 420 kts | 136° |
| 2026-05-04 17:46 | 49.00532 | 10.45914 | 20973 ft | 418 kts | 136° |
| 2026-05-04 17:46 | 48.98551 | 10.49076 | 20523 ft | 410 kts | 136° |
| 2026-05-04 17:47 | 48.96591 | 10.52202 | 19984 ft | 405 kts | 136° |
| 2026-05-04 17:47 | 48.94663 | 10.55280 | 19442 ft | 400 kts | 136° |
| 2026-05-04 17:47 | 48.92750 | 10.58334 | 18909 ft | 396 kts | 136° |
| 2026-05-04 17:47 | 48.90857 | 10.61349 | 18394 ft | 392 kts | 136° |
| 2026-05-04 17:48 | 48.88980 | 10.64327 | 17818 ft | 389 kts | 136° |
| 2026-05-04 17:48 | 48.87116 | 10.67282 | 17234 ft | 385 kts | 136° |
| 2026-05-04 17:48 | 48.85270 | 10.70206 | 16673 ft | 381 kts | 136° |
| 2026-05-04 17:48 | 48.83443 | 10.73097 | 16107 ft | 377 kts | 136° |
| 2026-05-04 17:49 | 48.81636 | 10.75954 | 15538 ft | 372 kts | 136° |
| 2026-05-04 17:49 | 48.79853 | 10.78771 | 15001 ft | 368 kts | 136° |
| 2026-05-04 17:49 | 48.78082 | 10.81554 | 14468 ft | 364 kts | 136° |
| 2026-05-04 17:49 | 48.76332 | 10.84295 | 13943 ft | 360 kts | 136° |
| 2026-05-04 17:50 | 48.74604 | 10.86996 | 13481 ft | 353 kts | 136° |
| 2026-05-04 17:50 | 48.72910 | 10.89645 | 13220 ft | 349 kts | 136° |
| 2026-05-04 17:50 | 48.71795 | 10.91393 | 13049 ft | 348 kts | 136° |
| 2026-05-04 17:50 | 48.70112 | 10.94025 | 12931 ft | 347 kts | 137° |
| 2026-05-04 17:51 | 48.68430 | 10.96651 | 12947 ft | 348 kts | 137° |
| 2026-05-04 17:51 | 48.66746 | 10.99277 | 12953 ft | 348 kts | 137° |
| 2026-05-04 17:51 | 48.65058 | 11.01913 | 12949 ft | 348 kts | 135° |
| 2026-05-04 17:51 | 48.63608 | 11.04868 | 12949 ft | 351 kts | 126° |
| 2026-05-04 17:52 | 48.61834 | 11.08939 | 12693 ft | 348 kts | 126° |
| 2026-05-04 17:52 | 48.60937 | 11.10997 | 12290 ft | 346 kts | 126° |
| 2026-05-04 17:52 | 48.59617 | 11.14020 | 11706 ft | 344 kts | 126° |
| 2026-05-04 17:52 | 48.58302 | 11.17026 | 11154 ft | 342 kts | 127° |
| 2026-05-04 17:53 | 48.56993 | 11.20021 | 10953 ft | 342 kts | 127° |
| 2026-05-04 17:53 | 48.55683 | 11.23019 | 10947 ft | 343 kts | 127° |
| 2026-05-04 17:53 | 48.54369 | 11.26025 | 10938 ft | 343 kts | 127° |
| 2026-05-04 17:53 | 48.53053 | 11.29032 | 10941 ft | 343 kts | 127° |
| 2026-05-04 17:54 | 48.51735 | 11.32037 | 10926 ft | 344 kts | 127° |
| 2026-05-04 17:54 | 48.50430 | 11.35007 | 10947 ft | 344 kts | 127° |
| 2026-05-04 17:54 | 48.49107 | 11.38011 | 10947 ft | 344 kts | 127° |
| 2026-05-04 17:54 | 48.47780 | 11.41021 | 10947 ft | 344 kts | 127° |
| 2026-05-04 17:55 | 48.46453 | 11.44023 | 10756 ft | 344 kts | 127° |
| 2026-05-04 17:55 | 48.45131 | 11.47018 | 10512 ft | 343 kts | 127° |
| 2026-05-04 17:55 | 48.44026 | 11.50210 | 10263 ft | 347 kts | 115° |
| 2026-05-04 17:55 | 48.43393 | 11.53722 | 10034 ft | 347 kts | 102° |
| 2026-05-04 17:56 | 48.43276 | 11.57296 | 9848 ft | 337 kts | 89° |
| 2026-05-04 17:56 | 48.43512 | 11.60740 | 9730 ft | 323 kts | 87° |
| 2026-05-04 17:56 | 48.43746 | 11.64034 | 9598 ft | 311 kts | 87° |
| 2026-05-04 17:56 | 48.43965 | 11.67241 | 9466 ft | 305 kts | 87° |
| 2026-05-04 17:57 | 48.44177 | 11.70409 | 9335 ft | 304 kts | 87° |
| 2026-05-04 17:57 | 48.44390 | 11.73564 | 9189 ft | 299 kts | 86° |
| 2026-05-04 17:57 | 48.44599 | 11.76669 | 8925 ft | 298 kts | 86° |
| 2026-05-04 17:57 | 48.44807 | 11.79773 | 8515 ft | 297 kts | 86° |
| 2026-05-04 17:58 | 48.45033 | 11.82823 | 8354 ft | 286 kts | 85° |
| 2026-05-04 17:58 | 48.45265 | 11.85728 | 8286 ft | 272 kts | 85° |
| 2026-05-04 17:58 | 48.45494 | 11.88500 | 8224 ft | 265 kts | 85° |
| 2026-05-04 17:58 | 48.45722 | 11.91273 | 8167 ft | 267 kts | 85° |
| 2026-05-04 17:59 | 48.45947 | 11.94052 | 8112 ft | 268 kts | 85° |
| 2026-05-04 17:59 | 48.46169 | 11.96838 | 8048 ft | 267 kts | 85° |
| 2026-05-04 17:59 | 48.46608 | 12.02394 | 7927 ft | 266 kts | 85° |
| 2026-05-04 18:00 | 48.46826 | 12.05160 | 7867 ft | 267 kts | 85° |
| 2026-05-04 18:00 | 48.47057 | 12.08048 | 7878 ft | 282 kts | 84° |
| 2026-05-04 18:00 | 48.47291 | 12.10973 | 7750 ft | 285 kts | 84° |
| 2026-05-04 18:00 | 48.47527 | 12.13937 | 7351 ft | 284 kts | 84° |
| 2026-05-04 18:01 | 48.47757 | 12.16886 | 6984 ft | 282 kts | 84° |
| 2026-05-04 18:01 | 48.47979 | 12.19809 | 6622 ft | 280 kts | 84° |
| 2026-05-04 18:01 | 48.48191 | 12.22712 | 6282 ft | 277 kts | 86° |
| 2026-05-04 18:02 | 48.46972 | 12.27894 | 5548 ft | 269 kts | 139° |
| 2026-05-04 18:02 | 48.45351 | 12.29241 | 5151 ft | 268 kts | 165° |
| 2026-05-04 18:02 | 48.43504 | 12.29441 | 4748 ft | 269 kts | 189° |
| 2026-05-04 18:02 | 48.41758 | 12.28471 | 4331 ft | 270 kts | 213° |
| 2026-05-04 18:03 | 48.40445 | 12.26493 | 4024 ft | 267 kts | 239° |
| 2026-05-04 18:03 | 48.39792 | 12.23878 | 3998 ft | 271 kts | 261° |
| 2026-05-04 18:03 | 48.39569 | 12.21051 | 3998 ft | 273 kts | 264° |
| 2026-05-04 18:03 | 48.39374 | 12.18207 | 4002 ft | 274 kts | 264° |
| 2026-05-04 18:04 | 48.39170 | 12.15357 | 4002 ft | 274 kts | 264° |
| 2026-05-04 18:04 | 48.38960 | 12.12513 | 4008 ft | 274 kts | 264° |
| 2026-05-04 18:04 | 48.38550 | 12.06963 | 4006 ft | 252 kts | 264° |
| 2026-05-04 18:05 | 48.38363 | 12.04430 | 4011 ft | 235 kts | 263° |
| 2026-05-04 18:05 | 48.38183 | 12.02008 | 4015 ft | 232 kts | 263° |
| 2026-05-04 18:05 | 48.38003 | 11.99596 | 3883 ft | 233 kts | 263° |
| 2026-05-04 18:05 | 48.37822 | 11.97166 | 3462 ft | 234 kts | 264° |
| 2026-05-04 18:06 | 48.37465 | 11.92404 | 2852 ft | 222 kts | 264° |
| 2026-05-04 18:06 | 48.37295 | 11.90151 | 2555 ft | 211 kts | 264° |
| 2026-05-04 18:06 | 48.37136 | 11.88051 | 2288 ft | 191 kts | 264° |
| 2026-05-04 18:07 | 48.36996 | 11.86199 | 2030 ft | 171 kts | 264° |
| 2026-05-04 18:07 | 48.36867 | 11.84504 | 1803 ft | 157 kts | 265° |
| 2026-05-04 18:07 | 48.36745 | 11.82900 | 1643 ft | 152 kts | 265° |
| 2026-05-04 18:07 | 48.36606 | 11.81192 | 1766 ft | 182 kts | 264° |
| 2026-05-04 18:08 | 48.36613 | 11.79153 | 2166 ft | 209 kts | 280° |
| 2026-05-04 18:08 | 48.37069 | 11.77025 | 2892 ft | 218 kts | 297° |
| 2026-05-04 18:08 | 48.37861 | 11.75033 | 3338 ft | 228 kts | 310° |
| 2026-05-04 18:08 | 48.39195 | 11.73690 | 3776 ft | 238 kts | 344° |
| 2026-05-04 18:09 | 48.42525 | 11.72936 | 4911 ft | 248 kts | 354° |
| 2026-05-04 18:09 | 48.45936 | 11.72384 | 5006 ft | 246 kts | 354° |
| 2026-05-04 18:10 | 48.47635 | 11.72109 | 5009 ft | 245 kts | 354° |
| 2026-05-04 18:10 | 48.49330 | 11.71826 | 5005 ft | 245 kts | 355° |
| 2026-05-04 18:10 | 48.51026 | 11.71696 | 5006 ft | 243 kts | 10° |
| 2026-05-04 18:10 | 48.52552 | 11.72674 | 4992 ft | 240 kts | 42° |
| 2026-05-04 18:11 | 48.53679 | 11.74523 | 4997 ft | 240 kts | 53° |
| 2026-05-04 18:11 | 48.54692 | 11.76528 | 4987 ft | 241 kts | 54° |
| 2026-05-04 18:11 | 48.55690 | 11.78570 | 4994 ft | 242 kts | 54° |
| 2026-05-04 18:11 | 48.56686 | 11.80618 | 4995 ft | 241 kts | 54° |
| 2026-05-04 18:12 | 48.57675 | 11.82658 | 4997 ft | 241 kts | 54° |
| 2026-05-04 18:12 | 48.58664 | 11.84698 | 4991 ft | 241 kts | 54° |
| 2026-05-04 18:12 | 48.59654 | 11.86741 | 4997 ft | 241 kts | 54° |
| 2026-05-04 18:12 | 48.60642 | 11.88780 | 4997 ft | 241 kts | 54° |
| 2026-05-04 18:13 | 48.61628 | 11.90824 | 4994 ft | 241 kts | 54° |
| 2026-05-04 18:13 | 48.62615 | 11.92866 | 4999 ft | 241 kts | 54° |
| 2026-05-04 18:13 | 48.64580 | 11.96928 | 5001 ft | 241 kts | 54° |
| 2026-05-04 18:14 | 48.65427 | 11.99085 | 4999 ft | 239 kts | 75° |
| 2026-05-04 18:14 | 48.65515 | 12.01556 | 5007 ft | 237 kts | 99° |
| 2026-05-04 18:14 | 48.65181 | 12.04001 | 5007 ft | 239 kts | 104° |
| 2026-05-04 18:15 | 48.64379 | 12.08861 | 4998 ft | 238 kts | 104° |
| 2026-05-04 18:15 | 48.63567 | 12.13714 | 5000 ft | 238 kts | 104° |
| 2026-05-04 18:15 | 48.63157 | 12.16141 | 4994 ft | 239 kts | 105° |
| 2026-05-04 18:16 | 48.62424 | 12.18350 | 4996 ft | 237 kts | 134° |
| 2026-05-04 18:16 | 48.61042 | 12.19653 | 5002 ft | 237 kts | 166° |
| 2026-05-04 18:16 | 48.59401 | 12.19830 | 5004 ft | 238 kts | 182° |
| 2026-05-04 18:17 | 48.56083 | 12.19441 | 5000 ft | 239 kts | 185° |
| 2026-05-04 18:17 | 48.54426 | 12.19216 | 5000 ft | 239 kts | 185° |
| 2026-05-04 18:17 | 48.51114 | 12.18767 | 4989 ft | 239 kts | 184° |
| 2026-05-04 18:18 | 48.49452 | 12.18536 | 4997 ft | 240 kts | 184° |
| 2026-05-04 18:18 | 48.47788 | 12.18299 | 4998 ft | 240 kts | 185° |
| 2026-05-04 18:18 | 48.46110 | 12.18063 | 4792 ft | 244 kts | 185° |
| 2026-05-04 18:18 | 48.44427 | 12.17828 | 4437 ft | 243 kts | 184° |
| 2026-05-04 18:19 | 48.41381 | 12.16223 | 4001 ft | 237 kts | 227° |
| 2026-05-04 18:19 | 48.40340 | 12.14266 | 4009 ft | 241 kts | 234° |
| 2026-05-04 18:19 | 48.39366 | 12.12211 | 3998 ft | 241 kts | 236° |
| 2026-05-04 18:20 | 48.38761 | 12.09885 | 4007 ft | 240 kts | 261° |
| 2026-05-04 18:20 | 48.38568 | 12.07385 | 4008 ft | 241 kts | 264° |
| 2026-05-04 18:20 | 48.38394 | 12.04875 | 4007 ft | 242 kts | 264° |
| 2026-05-04 18:20 | 48.38210 | 12.02357 | 4006 ft | 242 kts | 264° |
| 2026-05-04 18:21 | 48.38022 | 11.99836 | 4007 ft | 242 kts | 264° |
| 2026-05-04 18:21 | 48.37834 | 11.97318 | 3653 ft | 241 kts | 264° |
| 2026-05-04 18:21 | 48.37649 | 11.94850 | 3188 ft | 235 kts | 264° |
| 2026-05-04 18:21 | 48.37467 | 11.92423 | 2848 ft | 233 kts | 264° |
| 2026-05-04 18:22 | 48.37285 | 11.90009 | 2537 ft | 231 kts | 264° |
| 2026-05-04 18:22 | 48.37106 | 11.87648 | 2245 ft | 216 kts | 264° |
| 2026-05-04 18:22 | 48.36941 | 11.85465 | 1940 ft | 205 kts | 264° |
| 2026-05-04 18:22 | 48.36783 | 11.83364 | 1773 ft | 199 kts | 265° |
| 2026-05-04 18:23 | 48.36643 | 11.81419 | 1509 ft | 173 kts | 263° |
| 2026-05-04 18:23 | 48.36522 | 11.79870 | 1476 ft | 112 kts | 263° |
| 2026-05-04 18:23 | 48.36461 | 11.79139 | 1481 ft | 45 kts | 258° |
| 2026-05-04 18:23 | 48.36333 | 11.78769 | 1472 ft | 26 kts | 235° |
| 2026-05-04 18:24 | 48.36231 | 11.78571 | 1477 ft | 22 kts | 232° |
| 2026-05-04 18:24 | 48.36120 | 11.78480 | 1485 ft | 15 kts | 177° |
| 2026-05-04 18:24 | 48.36043 | 11.78511 | 1476 ft | 11 kts | 137° |
| 2026-05-04 18:24 | 48.36039 | 11.78622 | 1480 ft | 11 kts | 83° |
| 2026-05-04 18:25 | 48.36050 | 11.78748 | 1471 ft | 13 kts | 83° |
| 2026-05-04 18:25 | 48.36060 | 11.78889 | 1481 ft | 14 kts | 84° |
| 2026-05-04 18:25 | 48.36072 | 11.79043 | 1482 ft | 16 kts | 82° |
| 2026-05-04 18:25 | 48.36085 | 11.79213 | 1483 ft | 15 kts | 84° |
| 2026-05-04 18:26 | 48.36060 | 11.79317 | 1480 ft | 11 kts | 157° |
| 2026-05-04 18:26 | 48.35981 | 11.79335 | 1485 ft | 9 kts | 173° |
| 2026-05-04 18:26 | 48.35979 | 11.79335 | 1485 ft | 0 kts | 173° |
| 2026-05-04 18:32 | 48.35978 | 11.79335 | 1485 ft | 1 kts | 173° |
| 2026-05-04 18:32 | 48.35948 | 11.79341 | 1484 ft | 7 kts | 172° |
| 2026-05-04 18:32 | 48.35900 | 11.79372 | 1481 ft | 8 kts | 160° |
| 2026-05-04 18:33 | 48.35839 | 11.79387 | 1480 ft | 10 kts | 173° |
| 2026-05-04 18:33 | 48.35780 | 11.79427 | 1475 ft | 10 kts | 109° |
| 2026-05-04 18:33 | 48.35792 | 11.79533 | 1475 ft | 11 kts | 78° |
| 2026-05-04 18:33 | 48.35803 | 11.79655 | 1475 ft | 12 kts | 83° |
| 2026-05-04 18:34 | 48.35814 | 11.79791 | 1485 ft | 14 kts | 83° |
| 2026-05-04 18:34 | 48.35825 | 11.79939 | 1485 ft | 13 kts | 85° |
| 2026-05-04 18:34 | 48.35803 | 11.80054 | 1485 ft | 12 kts | 150° |
| 2026-05-04 18:34 | 48.35725 | 11.80078 | 1485 ft | 11 kts | 173° |
| 2026-05-04 18:35 | 48.35646 | 11.80099 | 1484 ft | 12 kts | 172° |
| 2026-05-04 18:35 | 48.35588 | 11.80110 | 1485 ft | 13 kts | 173° |
| 2026-05-04 18:35 | 48.35500 | 11.80125 | 1483 ft | 13 kts | 173° |
| 2026-05-04 18:35 | 48.35422 | 11.80139 | 1473 ft | 8 kts | 172° |
| 2026-05-04 18:36 | 48.35394 | 11.80117 | 1485 ft | 3 kts | 239° |
| 2026-05-04 18:36 | 48.35387 | 11.80081 | 1485 ft | 4 kts | 265° |
| 2026-05-04 18:36 | 48.35385 | 11.80057 | 1477 ft | 1 kts | 262° |
| 2026-05-04 18:36 | 48.35383 | 11.80039 | 1479 ft | 1 kts | 263° |
| 2026-05-04 18:37 | 48.35382 | 11.80027 | 1482 ft | 0 kts | 263° |
| 2026-05-04 18:37 | 48.35382 | 11.80020 | 1485 ft | 1 kts | 263° |
| 2026-05-04 18:37 | 48.35381 | 11.80019 | 1485 ft | 0 kts | 263° |